Weather at Thompson Strawberry Farm Airport

Public forecast

Using degrees Fahrenheit for public forecast. Weather courtesy of forecast.io.

Closest aviation weather report (METAR) to Thompson Strawberry Farm Airport

Closest report is Kenosha Regional Airport, 2.6 nm (4.9 km) ENE. Retrieved 2021/06/13 15:53 UTC (7 minutes ago):

KENW 131553Z 34007G16KT 10SM CLR 29/10 A3001 RMK AO2 SLP158 T02940100

Closest aviation forecast (TAF) to Thompson Strawberry Farm Airport

Closest forecast is Kenosha Regional Airport, 2.6 nm (4.9 km) ENE. Retrieved 2021/06/13 12:22 UTC (4 hours ago):

TAF KENW 131120Z 1312/1412 34005KT P6SM FEW250 FM132200 08007KT P6SM SKC FM140200 18003KT P6SM SKC FM140800 36007KT P6SM SCT250